sensor_id;sensor_type;location;lat;lon;timestamp;temperature;humidity
53653;DHT22;39553;52.954;5.932;2022-11-20T00:00:26;-1.60;99.90
53653;DHT22;39553;52.954;5.932;2022-11-20T00:02:52;-1.60;99.90
53653;DHT22;39553;52.954;5.932;2022-11-20T00:05:17;-1.60;99.90
53653;DHT22;39553;52.954;5.932;2022-11-20T00:07:43;-1.60;99.90
53653;DHT22;39553;52.954;5.932;2022-11-20T00:10:09;-1.60;99.90
53653;DHT22;39553;52.954;5.932;2022-11-20T00:12:35;-1.50;99.90
53653;DHT22;39553;52.954;5.932;2022-11-20T00:15:00;-1.50;99.90
53653;DHT22;39553;52.954;5.932;2022-11-20T00:17:26;-1.40;99.90
53653;DHT22;39553;52.954;5.932;2022-11-20T00:19:52;-1.40;99.90
53653;DHT22;39553;52.954;5.932;2022-11-20T00:22:18;-1.40;99.90
53653;DHT22;39553;52.954;5.932;2022-11-20T00:24:43;0.30;99.90
53653;DHT22;39553;52.954;5.932;2022-11-20T00:27:09;-1.30;99.90
53653;DHT22;39553;52.954;5.932;2022-11-20T00:29:35;-1.30;99.90
53653;DHT22;39553;52.954;5.932;2022-11-20T00:32:00;-1.20;99.90
53653;DHT22;39553;52.954;5.932;2022-11-20T00:34:26;-1.30;99.90
53653;DHT22;39553;52.954;5.932;2022-11-20T00:36:52;-1.30;99.90
53653;DHT22;39553;52.954;5.932;2022-11-20T00:39:17;-1.30;99.90
53653;DHT22;39553;52.954;5.932;2022-11-20T00:41:43;-1.30;99.90
53653;DHT22;39553;52.954;5.932;2022-11-20T00:44:09;-1.30;99.90
53653;DHT22;39553;52.954;5.932;2022-11-20T00:46:34;-0.10;99.90
53653;DHT22;39553;52.954;5.932;2022-11-20T00:49:01;-1.40;99.90
53653;DHT22;39553;52.954;5.932;2022-11-20T00:51:27;-1.40;99.90
53653;DHT22;39553;52.954;5.932;2022-11-20T00:53:56;-1.40;99.90
53653;DHT22;39553;52.954;5.932;2022-11-20T00:56:21;-1.40;99.90
53653;DHT22;39553;52.954;5.932;2022-11-20T00:58:48;-1.40;99.90
53653;DHT22;39553;52.954;5.932;2022-11-20T01:01:17;-1.40;99.90
53653;DHT22;39553;52.954;5.932;2022-11-20T01:03:45;-1.50;99.90
53653;DHT22;39553;52.954;5.932;2022-11-20T01:06:16;-1.50;99.90
53653;DHT22;39553;52.954;5.932;2022-11-20T01:08:44;-1.40;99.90
53653;DHT22;39553;52.954;5.932;2022-11-20T01:11:16;-1.50;99.90
53653;DHT22;39553;52.954;5.932;2022-11-20T01:13:43;-1.40;99.90
53653;DHT22;39553;52.954;5.932;2022-11-20T01:16:37;-1.50;99.90
53653;DHT22;39553;52.954;5.932;2022-11-20T01:19:05;-1.50;99.90
53653;DHT22;39553;52.954;5.932;2022-11-20T01:21:37;-1.50;99.90
53653;DHT22;39553;52.954;5.932;2022-11-20T01:24:06;-1.50;99.90
53653;DHT22;39553;52.954;5.932;2022-11-20T01:26:35;-1.50;99.90
53653;DHT22;39553;52.954;5.932;2022-11-20T01:29:01;-0.60;99.90
53653;DHT22;39553;52.954;5.932;2022-11-20T01:31:32;-1.50;99.90
53653;DHT22;39553;52.954;5.932;2022-11-20T01:34:02;-1.20;99.90
53653;DHT22;39553;52.954;5.932;2022-11-20T01:36:29;-1.40;99.90
53653;DHT22;39553;52.954;5.932;2022-11-20T01:38:59;-1.40;99.90
53653;DHT22;39553;52.954;5.932;2022-11-20T01:41:28;-0.60;99.90
53653;DHT22;39553;52.954;5.932;2022-11-20T01:44:17;-1.40;99.90
53653;DHT22;39553;52.954;5.932;2022-11-20T01:47:04;-1.20;99.90
53653;DHT22;39553;52.954;5.932;2022-11-20T01:49:37;-1.30;99.90
53653;DHT22;39553;52.954;5.932;2022-11-20T01:52:07;-0.40;99.90
53653;DHT22;39553;52.954;5.932;2022-11-20T01:54:42;-1.00;99.90
53653;DHT22;39553;52.954;5.932;2022-11-20T01:57:10;0.20;99.90
53653;DHT22;39553;52.954;5.932;2022-11-20T01:59:41;-0.20;99.90
53653;DHT22;39553;52.954;5.932;2022-11-20T02:02:09;0.40;99.90
53653;DHT22;39553;52.954;5.932;2022-11-20T02:04:35;-1.40;99.90
53653;DHT22;39553;52.954;5.932;2022-11-20T02:07:02;-1.40;99.90
53653;DHT22;39553;52.954;5.932;2022-11-20T02:09:29;-0.40;99.90
53653;DHT22;39553;52.954;5.932;2022-11-20T02:11:55;-1.00;99.90
53653;DHT22;39553;52.954;5.932;2022-11-20T02:14:22;-1.30;99.90
53653;DHT22;39553;52.954;5.932;2022-11-20T02:16:49;-1.40;99.90
53653;DHT22;39553;52.954;5.932;2022-11-20T02:19:23;-1.40;99.90
53653;DHT22;39553;52.954;5.932;2022-11-20T02:22:12;-1.00;99.90
53653;DHT22;39553;52.954;5.932;2022-11-20T02:24:39;-1.40;99.90
53653;DHT22;39553;52.954;5.932;2022-11-20T02:27:12;-1.40;99.90
53653;DHT22;39553;52.954;5.932;2022-11-20T02:29:43;-1.40;99.90
53653;DHT22;39553;52.954;5.932;2022-11-20T02:32:21;-1.60;99.90
53653;DHT22;39553;52.954;5.932;2022-11-20T02:34:47;-0.40;99.90
53653;DHT22;39553;52.954;5.932;2022-11-20T02:37:13;-1.50;99.90
53653;DHT22;39553;52.954;5.932;2022-11-20T02:39:39;0.00;99.90
53653;DHT22;39553;52.954;5.932;2022-11-20T02:42:06;-1.50;99.90
53653;DHT22;39553;52.954;5.932;2022-11-20T02:44:31;0.20;99.90
53653;DHT22;39553;52.954;5.932;2022-11-20T02:46:58;-1.60;99.90
53653;DHT22;39553;52.954;5.932;2022-11-20T02:49:24;-1.60;99.90
53653;DHT22;39553;52.954;5.932;2022-11-20T02:51:50;-1.60;99.90
53653;DHT22;39553;52.954;5.932;2022-11-20T02:54:16;-1.60;99.90
53653;DHT22;39553;52.954;5.932;2022-11-20T02:56:42;0.00;99.90
53653;DHT22;39553;52.954;5.932;2022-11-20T02:59:08;0.00;99.90
53653;DHT22;39553;52.954;5.932;2022-11-20T03:01:34;0.00;99.90
53653;DHT22;39553;52.954;5.932;2022-11-20T03:04:00;-1.50;99.90
53653;DHT22;39553;52.954;5.932;2022-11-20T03:06:26;-1.50;99.90
53653;DHT22;39553;52.954;5.932;2022-11-20T03:08:52;-0.60;99.90
53653;DHT22;39553;52.954;5.932;2022-11-20T03:11:19;-1.50;99.90
53653;DHT22;39553;52.954;5.932;2022-11-20T03:13:45;-1.60;99.90
53653;DHT22;39553;52.954;5.932;2022-11-20T03:16:13;-1.00;99.90
53653;DHT22;39553;52.954;5.932;2022-11-20T03:18:40;-1.60;99.90
53653;DHT22;39553;52.954;5.932;2022-11-20T03:21:08;-1.60;99.90
53653;DHT22;39553;52.954;5.932;2022-11-20T03:23:34;-1.60;99.90
53653;DHT22;39553;52.954;5.932;2022-11-20T03:26:23;-1.60;99.90
53653;DHT22;39553;52.954;5.932;2022-11-20T03:28:52;-1.60;99.90
53653;DHT22;39553;52.954;5.932;2022-11-20T03:31:20;-1.60;99.90
53653;DHT22;39553;52.954;5.932;2022-11-20T03:33:46;-1.60;99.90
53653;DHT22;39553;52.954;5.932;2022-11-20T03:36:14;0.00;99.90
53653;DHT22;39553;52.954;5.932;2022-11-20T03:38:40;-1.70;99.90
53653;DHT22;39553;52.954;5.932;2022-11-20T03:41:12;-1.70;99.90
53653;DHT22;39553;52.954;5.932;2022-11-20T03:43:38;-1.70;99.90
53653;DHT22;39553;52.954;5.932;2022-11-20T03:46:06;-1.70;99.90
53653;DHT22;39553;52.954;5.932;2022-11-20T03:48:32;-1.70;99.90
53653;DHT22;39553;52.954;5.932;2022-11-20T03:51:18;-1.80;99.90
53653;DHT22;39553;52.954;5.932;2022-11-20T03:53:45;-1.80;99.90
53653;DHT22;39553;52.954;5.932;2022-11-20T03:56:13;-1.90;99.90
53653;DHT22;39553;52.954;5.932;2022-11-20T03:58:40;-1.90;99.90
53653;DHT22;39553;52.954;5.932;2022-11-20T04:01:12;-1.10;99.90
53653;DHT22;39553;52.954;5.932;2022-11-20T04:03:40;-1.90;99.90
53653;DHT22;39553;52.954;5.932;2022-11-20T04:06:11;-2.00;99.90
53653;DHT22;39553;52.954;5.932;2022-11-20T04:08:37;-2.00;99.90
53653;DHT22;39553;52.954;5.932;2022-11-20T04:11:11;-2.00;99.90
53653;DHT22;39553;52.954;5.932;2022-11-20T04:13:37;-1.90;99.90
53653;DHT22;39553;52.954;5.932;2022-11-20T04:16:05;-1.90;99.90
53653;DHT22;39553;52.954;5.932;2022-11-20T04:18:31;-1.90;99.90
53653;DHT22;39553;52.954;5.932;2022-11-20T04:20:57;-1.80;99.90
53653;DHT22;39553;52.954;5.932;2022-11-20T04:23:24;-1.90;99.90
53653;DHT22;39553;52.954;5.932;2022-11-20T04:25:49;-1.90;99.90
53653;DHT22;39553;52.954;5.932;2022-11-20T04:28:15;-1.90;99.90
53653;DHT22;39553;52.954;5.932;2022-11-20T04:30:41;-1.90;99.90
53653;DHT22;39553;52.954;5.932;2022-11-20T04:33:07;-2.00;99.90
53653;DHT22;39553;52.954;5.932;2022-11-20T04:35:36;-1.90;99.90
53653;DHT22;39553;52.954;5.932;2022-11-20T04:38:03;-1.90;99.90
53653;DHT22;39553;52.954;5.932;2022-11-20T04:40:28;-1.90;99.90
53653;DHT22;39553;52.954;5.932;2022-11-20T04:42:54;-2.00;99.90
53653;DHT22;39553;52.954;5.932;2022-11-20T04:45:21;-2.00;99.90
53653;DHT22;39553;52.954;5.932;2022-11-20T04:47:47;-2.00;99.90
53653;DHT22;39553;52.954;5.932;2022-11-20T04:50:13;-2.00;99.90
53653;DHT22;39553;52.954;5.932;2022-11-20T04:52:39;-2.00;99.90
53653;DHT22;39553;52.954;5.932;2022-11-20T04:55:05;-1.40;99.90
53653;DHT22;39553;52.954;5.932;2022-11-20T04:57:31;-2.10;99.90
53653;DHT22;39553;52.954;5.932;2022-11-20T04:59:56;-2.10;99.90
53653;DHT22;39553;52.954;5.932;2022-11-20T05:02:22;-2.20;99.90
53653;DHT22;39553;52.954;5.932;2022-11-20T05:04:48;-2.20;99.90
53653;DHT22;39553;52.954;5.932;2022-11-20T05:07:14;-2.20;99.90
53653;DHT22;39553;52.954;5.932;2022-11-20T05:09:40;-1.70;99.90
53653;DHT22;39553;52.954;5.932;2022-11-20T05:12:08;-0.80;99.90
53653;DHT22;39553;52.954;5.932;2022-11-20T05:14:34;-2.30;99.90
53653;DHT22;39553;52.954;5.932;2022-11-20T05:17:00;-2.30;99.90
53653;DHT22;39553;52.954;5.932;2022-11-20T05:19:25;-2.30;99.90
53653;DHT22;39553;52.954;5.932;2022-11-20T05:21:51;-2.40;99.90
53653;DHT22;39553;52.954;5.932;2022-11-20T05:24:17;-2.40;99.90
53653;DHT22;39553;52.954;5.932;2022-11-20T05:26:42;-2.40;99.90
53653;DHT22;39553;52.954;5.932;2022-11-20T05:29:12;-2.40;99.90
53653;DHT22;39553;52.954;5.932;2022-11-20T05:31:40;-2.40;99.90
53653;DHT22;39553;52.954;5.932;2022-11-20T05:34:06;-2.50;99.90
53653;DHT22;39553;52.954;5.932;2022-11-20T05:36:32;-1.60;99.90
53653;DHT22;39553;52.954;5.932;2022-11-20T05:38:58;-1.10;99.90
53653;DHT22;39553;52.954;5.932;2022-11-20T05:41:23;-2.50;99.90
53653;DHT22;39553;52.954;5.932;2022-11-20T05:43:50;-2.60;99.90
53653;DHT22;39553;52.954;5.932;2022-11-20T05:46:19;-2.60;99.90
53653;DHT22;39553;52.954;5.932;2022-11-20T05:48:45;-2.70;99.90
53653;DHT22;39553;52.954;5.932;2022-11-20T05:51:14;-1.80;99.90
53653;DHT22;39553;52.954;5.932;2022-11-20T05:53:40;-2.70;99.90
53653;DHT22;39553;52.954;5.932;2022-11-20T05:56:12;-2.70;99.90
53653;DHT22;39553;52.954;5.932;2022-11-20T05:58:38;-2.80;99.90
53653;DHT22;39553;52.954;5.932;2022-11-20T06:01:16;-2.80;99.90
53653;DHT22;39553;52.954;5.932;2022-11-20T06:03:43;-1.20;99.90
53653;DHT22;39553;52.954;5.932;2022-11-20T06:06:11;-2.80;99.90
53653;DHT22;39553;52.954;5.932;2022-11-20T06:08:37;-2.80;99.90
53653;DHT22;39553;52.954;5.932;2022-11-20T06:11:13;-2.80;99.90
53653;DHT22;39553;52.954;5.932;2022-11-20T06:13:39;-2.00;99.90
53653;DHT22;39553;52.954;5.932;2022-11-20T06:16:06;-2.70;99.90
53653;DHT22;39553;52.954;5.932;2022-11-20T06:18:31;-2.70;99.90
53653;DHT22;39553;52.954;5.932;2022-11-20T06:21:23;-2.70;99.90
53653;DHT22;39553;52.954;5.932;2022-11-20T06:23:52;-2.70;99.90
53653;DHT22;39553;52.954;5.932;2022-11-20T06:26:23;-2.70;99.90
53653;DHT22;39553;52.954;5.932;2022-11-20T06:28:50;-2.70;99.90
53653;DHT22;39553;52.954;5.932;2022-11-20T06:31:19;-2.80;99.90
53653;DHT22;39553;52.954;5.932;2022-11-20T06:33:45;-2.10;99.90
53653;DHT22;39553;52.954;5.932;2022-11-20T06:36:12;-2.10;99.90
53653;DHT22;39553;52.954;5.932;2022-11-20T06:38:39;-2.80;99.90
53653;DHT22;39553;52.954;5.932;2022-11-20T06:41:14;-2.80;99.90
53653;DHT22;39553;52.954;5.932;2022-11-20T06:43:40;-2.80;99.90
53653;DHT22;39553;52.954;5.932;2022-11-20T06:46:06;-2.70;99.90
53653;DHT22;39553;52.954;5.932;2022-11-20T06:48:32;-2.20;99.90
53653;DHT22;39553;52.954;5.932;2022-11-20T06:50:58;-2.70;99.90
53653;DHT22;39553;52.954;5.932;2022-11-20T06:53:24;-2.60;99.90
53653;DHT22;39553;52.954;5.932;2022-11-20T06:55:51;-2.60;99.90
53653;DHT22;39553;52.954;5.932;2022-11-20T06:58:17;-2.50;99.90
53653;DHT22;39553;52.954;5.932;2022-11-20T07:00:44;-2.50;99.90
53653;DHT22;39553;52.954;5.932;2022-11-20T07:03:11;-2.50;99.90
53653;DHT22;39553;52.954;5.932;2022-11-20T07:05:37;-2.40;99.90
53653;DHT22;39553;52.954;5.932;2022-11-20T07:08:04;-2.40;99.90
53653;DHT22;39553;52.954;5.932;2022-11-20T07:10:30;-2.30;99.90
53653;DHT22;39553;52.954;5.932;2022-11-20T07:12:56;-2.30;99.90
53653;DHT22;39553;52.954;5.932;2022-11-20T07:15:23;-2.30;99.90
53653;DHT22;39553;52.954;5.932;2022-11-20T07:17:49;-2.30;99.90
53653;DHT22;39553;52.954;5.932;2022-11-20T07:20:15;-2.30;99.90
53653;DHT22;39553;52.954;5.932;2022-11-20T07:22:41;-2.30;99.90
53653;DHT22;39553;52.954;5.932;2022-11-20T07:25:08;-2.30;99.90
53653;DHT22;39553;52.954;5.932;2022-11-20T07:27:34;-2.30;99.90
53653;DHT22;39553;52.954;5.932;2022-11-20T07:30:00;-2.30;99.90
53653;DHT22;39553;52.954;5.932;2022-11-20T07:32:26;-2.30;99.90
53653;DHT22;39553;52.954;5.932;2022-11-20T07:34:52;-2.30;99.90
53653;DHT22;39553;52.954;5.932;2022-11-20T07:37:18;-2.30;99.90
53653;DHT22;39553;52.954;5.932;2022-11-20T07:39:44;-2.30;99.90
53653;DHT22;39553;52.954;5.932;2022-11-20T07:42:10;-2.30;99.90
53653;DHT22;39553;52.954;5.932;2022-11-20T07:44:38;-2.10;99.90
53653;DHT22;39553;52.954;5.932;2022-11-20T07:47:04;-2.20;99.90
53653;DHT22;39553;52.954;5.932;2022-11-20T07:49:30;-2.20;99.90
53653;DHT22;39553;52.954;5.932;2022-11-20T07:51:56;-2.30;99.90
53653;DHT22;39553;52.954;5.932;2022-11-20T07:54:22;-2.30;99.90
53653;DHT22;39553;52.954;5.932;2022-11-20T07:56:49;-1.80;99.90
53653;DHT22;39553;52.954;5.932;2022-11-20T07:59:15;-2.20;99.90
53653;DHT22;39553;52.954;5.932;2022-11-20T08:01:42;-2.20;99.90
53653;DHT22;39553;52.954;5.932;2022-11-20T08:04:08;-2.20;99.90
53653;DHT22;39553;52.954;5.932;2022-11-20T08:06:36;-2.20;99.90
53653;DHT22;39553;52.954;5.932;2022-11-20T08:09:02;-1.00;99.90
53653;DHT22;39553;52.954;5.932;2022-11-20T08:11:28;-2.30;99.90
53653;DHT22;39553;52.954;5.932;2022-11-20T08:14:12;-2.30;99.90
53653;DHT22;39553;52.954;5.932;2022-11-20T08:16:46;-2.30;99.90
53653;DHT22;39553;52.954;5.932;2022-11-20T08:19:13;-2.20;99.90
53653;DHT22;39553;52.954;5.932;2022-11-20T08:21:39;-2.20;99.90
53653;DHT22;39553;52.954;5.932;2022-11-20T08:24:06;-2.20;99.90
53653;DHT22;39553;52.954;5.932;2022-11-20T08:26:33;-2.10;99.90
53653;DHT22;39553;52.954;5.932;2022-11-20T08:29:00;-2.10;99.90
53653;DHT22;39553;52.954;5.932;2022-11-20T08:31:26;-2.00;99.90
53653;DHT22;39553;52.954;5.932;2022-11-20T08:33:53;-1.90;99.90
53653;DHT22;39553;52.954;5.932;2022-11-20T08:36:20;-1.90;99.90
53653;DHT22;39553;52.954;5.932;2022-11-20T08:38:53;-1.80;99.90
53653;DHT22;39553;52.954;5.932;2022-11-20T08:41:20;-1.80;99.90
53653;DHT22;39553;52.954;5.932;2022-11-20T08:43:55;-1.30;99.90
53653;DHT22;39553;52.954;5.932;2022-11-20T08:46:22;-1.50;99.90
53653;DHT22;39553;52.954;5.932;2022-11-20T08:48:48;-1.10;99.90
53653;DHT22;39553;52.954;5.932;2022-11-20T08:51:14;0.20;99.90
53653;DHT22;39553;52.954;5.932;2022-11-20T08:53:40;1.30;99.90
53653;DHT22;39553;52.954;5.932;2022-11-20T08:56:07;2.50;99.90
53653;DHT22;39553;52.954;5.932;2022-11-20T08:58:33;3.20;99.90
53653;DHT22;39553;52.954;5.932;2022-11-20T09:00:58;4.00;99.90
53653;DHT22;39553;52.954;5.932;2022-11-20T09:03:24;3.80;99.90
53653;DHT22;39553;52.954;5.932;2022-11-20T09:05:57;5.50;99.90
53653;DHT22;39553;52.954;5.932;2022-11-20T09:08:27;5.80;99.90
53653;DHT22;39553;52.954;5.932;2022-11-20T09:10:54;5.40;99.90
53653;DHT22;39553;52.954;5.932;2022-11-20T09:13:21;4.90;99.90
53653;DHT22;39553;52.954;5.932;2022-11-20T09:15:46;4.20;99.90
53653;DHT22;39553;52.954;5.932;2022-11-20T09:18:12;3.60;99.90
53653;DHT22;39553;52.954;5.932;2022-11-20T09:20:38;3.10;99.90
53653;DHT22;39553;52.954;5.932;2022-11-20T09:23:04;2.50;99.90
53653;DHT22;39553;52.954;5.932;2022-11-20T09:25:30;2.00;99.90
53653;DHT22;39553;52.954;5.932;2022-11-20T09:27:56;1.60;99.90
53653;DHT22;39553;52.954;5.932;2022-11-20T09:30:22;1.30;99.90
53653;DHT22;39553;52.954;5.932;2022-11-20T09:32:48;1.80;99.90
53653;DHT22;39553;52.954;5.932;2022-11-20T09:35:14;0.90;99.90
53653;DHT22;39553;52.954;5.932;2022-11-20T09:37:40;0.80;99.90
53653;DHT22;39553;52.954;5.932;2022-11-20T09:40:06;0.70;99.90
53653;DHT22;39553;52.954;5.932;2022-11-20T09:43:01;0.50;99.90
53653;DHT22;39553;52.954;5.932;2022-11-20T09:45:50;0.40;99.90
53653;DHT22;39553;52.954;5.932;2022-11-20T09:56:20;0.10;99.90
53653;DHT22;39553;52.954;5.932;2022-11-20T09:58:50;0.10;99.90
53653;DHT22;39553;52.954;5.932;2022-11-20T10:01:17;0.10;99.90
53653;DHT22;39553;52.954;5.932;2022-11-20T10:06:31;0.10;99.90
53653;DHT22;39553;52.954;5.932;2022-11-20T10:09:27;0.20;99.90
53653;DHT22;39553;52.954;5.932;2022-11-20T10:17:34;0.50;99.90
53653;DHT22;39553;52.954;5.932;2022-11-20T10:22:59;1.00;99.90
53653;DHT22;39553;52.954;5.932;2022-11-20T10:28:24;1.30;99.90
53653;DHT22;39553;52.954;5.932;2022-11-20T10:31:10;1.30;99.90
53653;DHT22;39553;52.954;5.932;2022-11-20T10:33:42;1.30;99.90
53653;DHT22;39553;52.954;5.932;2022-11-20T10:36:19;1.30;99.90
53653;DHT22;39553;52.954;5.932;2022-11-20T10:39:03;1.40;99.90
53653;DHT22;39553;52.954;5.932;2022-11-20T10:41:34;1.50;99.90
53653;DHT22;39553;52.954;5.932;2022-11-20T10:46:44;1.40;99.90
53653;DHT22;39553;52.954;5.932;2022-11-20T10:49:13;1.40;99.90
53653;DHT22;39553;52.954;5.932;2022-11-20T10:51:49;2.20;99.90
53653;DHT22;39553;52.954;5.932;2022-11-20T10:54:22;1.30;99.90
53653;DHT22;39553;52.954;5.932;2022-11-20T10:56:53;1.50;99.90
53653;DHT22;39553;52.954;5.932;2022-11-20T11:01:57;1.40;99.90
53653;DHT22;39553;52.954;5.932;2022-11-20T11:07:05;1.50;99.90
53653;DHT22;39553;52.954;5.932;2022-11-20T11:09:39;1.50;99.90
53653;DHT22;39553;52.954;5.932;2022-11-20T11:12:08;1.50;99.90
53653;DHT22;39553;52.954;5.932;2022-11-20T11:14:48;1.60;99.90
53653;DHT22;39553;52.954;5.932;2022-11-20T11:17:29;1.60;99.90
53653;DHT22;39553;52.954;5.932;2022-11-20T11:20:14;1.60;99.90
53653;DHT22;39553;52.954;5.932;2022-11-20T11:22:47;1.60;99.90
53653;DHT22;39553;52.954;5.932;2022-11-20T11:25:40;1.60;99.90
53653;DHT22;39553;52.954;5.932;2022-11-20T11:28:27;1.60;99.90
53653;DHT22;39553;52.954;5.932;2022-11-20T11:30:54;1.60;99.90
53653;DHT22;39553;52.954;5.932;2022-11-20T11:33:31;1.70;99.90
53653;DHT22;39553;52.954;5.932;2022-11-20T11:36:18;1.80;99.90
53653;DHT22;39553;52.954;5.932;2022-11-20T11:38:45;2.50;99.90
53653;DHT22;39553;52.954;5.932;2022-11-20T11:41:21;2.00;99.90
53653;DHT22;39553;52.954;5.932;2022-11-20T11:43:56;2.00;99.90
53653;DHT22;39553;52.954;5.932;2022-11-20T11:47:00;2.00;99.90
53653;DHT22;39553;52.954;5.932;2022-11-20T11:49:26;2.00;99.90
53653;DHT22;39553;52.954;5.932;2022-11-20T11:52:12;1.90;99.90
53653;DHT22;39553;52.954;5.932;2022-11-20T11:54:59;1.90;99.90
53653;DHT22;39553;52.954;5.932;2022-11-20T12:00:15;1.90;99.90
53653;DHT22;39553;52.954;5.932;2022-11-20T12:08:05;2.00;99.90
53653;DHT22;39553;52.954;5.932;2022-11-20T12:15:44;2.10;99.90
53653;DHT22;39553;52.954;5.932;2022-11-20T12:18:16;2.10;99.90
53653;DHT22;39553;52.954;5.932;2022-11-20T12:21:10;2.20;99.90
53653;DHT22;39553;52.954;5.932;2022-11-20T12:26:03;2.70;99.90
53653;DHT22;39553;52.954;5.932;2022-11-20T12:31:38;2.00;99.90
53653;DHT22;39553;52.954;5.932;2022-11-20T12:39:50;2.00;99.90
53653;DHT22;39553;52.954;5.932;2022-11-20T12:42:42;2.00;99.90
53653;DHT22;39553;52.954;5.932;2022-11-20T12:51:18;2.00;99.90
53653;DHT22;39553;52.954;5.932;2022-11-20T12:59:07;1.90;99.90
53653;DHT22;39553;52.954;5.932;2022-11-20T13:01:56;1.90;99.90
53653;DHT22;39553;52.954;5.932;2022-11-20T13:07:07;2.00;99.90
53653;DHT22;39553;52.954;5.932;2022-11-20T13:09:42;3.00;99.90
53653;DHT22;39553;52.954;5.932;2022-11-20T13:12:33;2.00;99.90
53653;DHT22;39553;52.954;5.932;2022-11-20T13:15:06;2.00;99.90
53653;DHT22;39553;52.954;5.932;2022-11-20T13:20:14;2.10;99.90
53653;DHT22;39553;52.954;5.932;2022-11-20T13:25:10;2.00;99.90
53653;DHT22;39553;52.954;5.932;2022-11-20T13:27:47;2.00;99.90
53653;DHT22;39553;52.954;5.932;2022-11-20T13:30:16;2.00;99.90
53653;DHT22;39553;52.954;5.932;2022-11-20T13:32:54;1.90;99.90
53653;DHT22;39553;52.954;5.932;2022-11-20T13:35:37;1.90;99.90
53653;DHT22;39553;52.954;5.932;2022-11-20T13:38:09;1.90;99.90
53653;DHT22;39553;52.954;5.932;2022-11-20T13:40:53;1.80;99.90
53653;DHT22;39553;52.954;5.932;2022-11-20T13:43:40;1.80;99.90
53653;DHT22;39553;52.954;5.932;2022-11-20T13:46:08;1.80;99.90
53653;DHT22;39553;52.954;5.932;2022-11-20T13:48:45;1.70;99.90
53653;DHT22;39553;52.954;5.932;2022-11-20T14:02:33;1.70;99.90
53653;DHT22;39553;52.954;5.932;2022-11-20T14:05:00;1.80;99.90
53653;DHT22;39553;52.954;5.932;2022-11-20T14:07:38;1.70;99.90
53653;DHT22;39553;52.954;5.932;2022-11-20T14:10:06;1.70;99.90
53653;DHT22;39553;52.954;5.932;2022-11-20T14:12:43;1.70;99.90
53653;DHT22;39553;52.954;5.932;2022-11-20T14:15:25;1.70;99.90
53653;DHT22;39553;52.954;5.932;2022-11-20T14:17:51;1.70;99.90
53653;DHT22;39553;52.954;5.932;2022-11-20T14:20:16;1.70;99.90
53653;DHT22;39553;52.954;5.932;2022-11-20T14:22:49;2.50;99.90
53653;DHT22;39553;52.954;5.932;2022-11-20T14:27:56;1.70;99.90
53653;DHT22;39553;52.954;5.932;2022-11-20T14:30:25;1.70;99.90
53653;DHT22;39553;52.954;5.932;2022-11-20T14:32:54;1.70;99.90
53653;DHT22;39553;52.954;5.932;2022-11-20T14:35:27;1.60;99.90
53653;DHT22;39553;52.954;5.932;2022-11-20T14:37:55;1.60;99.90
53653;DHT22;39553;52.954;5.932;2022-11-20T14:40:32;1.60;99.90
53653;DHT22;39553;52.954;5.932;2022-11-20T14:43:04;1.60;99.90
53653;DHT22;39553;52.954;5.932;2022-11-20T14:45:41;1.60;99.90
53653;DHT22;39553;52.954;5.932;2022-11-20T14:48:09;1.60;99.90
53653;DHT22;39553;52.954;5.932;2022-11-20T14:50:38;1.60;99.90
53653;DHT22;39553;52.954;5.932;2022-11-20T14:53:04;1.60;99.90
53653;DHT22;39553;52.954;5.932;2022-11-20T14:55:37;1.60;99.90
53653;DHT22;39553;52.954;5.932;2022-11-20T14:58:26;1.50;99.90
53653;DHT22;39553;52.954;5.932;2022-11-20T15:00:56;1.50;99.90
53653;DHT22;39553;52.954;5.932;2022-11-20T15:03:23;1.50;99.90
53653;DHT22;39553;52.954;5.932;2022-11-20T15:05:55;3.00;99.90
53653;DHT22;39553;52.954;5.932;2022-11-20T15:08:21;3.00;99.90
53653;DHT22;39553;52.954;5.932;2022-11-20T15:10:49;1.50;99.90
53653;DHT22;39553;52.954;5.932;2022-11-20T15:13:37;1.70;99.90
53653;DHT22;39553;52.954;5.932;2022-11-20T15:16:17;1.50;99.90
53653;DHT22;39553;52.954;5.932;2022-11-20T15:18:44;1.40;99.90
53653;DHT22;39553;52.954;5.932;2022-11-20T15:21:14;1.40;99.90
53653;DHT22;39553;52.954;5.932;2022-11-20T15:23:41;1.40;99.90
53653;DHT22;39553;52.954;5.932;2022-11-20T15:26:08;1.40;99.90
53653;DHT22;39553;52.954;5.932;2022-11-20T15:28:36;2.30;99.90
53653;DHT22;39553;52.954;5.932;2022-11-20T15:31:03;1.40;99.90
53653;DHT22;39553;52.954;5.932;2022-11-20T15:33:30;1.40;99.90
53653;DHT22;39553;52.954;5.932;2022-11-20T15:35:56;1.40;99.90
53653;DHT22;39553;52.954;5.932;2022-11-20T15:38:22;1.40;99.90
53653;DHT22;39553;52.954;5.932;2022-11-20T15:40:48;2.60;99.90
53653;DHT22;39553;52.954;5.932;2022-11-20T15:43:14;1.40;99.90
53653;DHT22;39553;52.954;5.932;2022-11-20T15:45:45;1.40;99.90
53653;DHT22;39553;52.954;5.932;2022-11-20T15:48:24;1.60;99.90
53653;DHT22;39553;52.954;5.932;2022-11-20T15:53:35;1.50;99.90
53653;DHT22;39553;52.954;5.932;2022-11-20T15:56:01;1.30;99.90
53653;DHT22;39553;52.954;5.932;2022-11-20T15:58:27;1.40;99.90
53653;DHT22;39553;52.954;5.932;2022-11-20T16:00:52;1.30;99.90
53653;DHT22;39553;52.954;5.932;2022-11-20T16:03:18;1.40;99.90
53653;DHT22;39553;52.954;5.932;2022-11-20T16:05:44;1.30;99.90
53653;DHT22;39553;52.954;5.932;2022-11-20T16:08:14;1.50;99.90
53653;DHT22;39553;52.954;5.932;2022-11-20T16:10:40;1.40;99.90
53653;DHT22;39553;52.954;5.932;2022-11-20T16:13:17;1.30;99.90
53653;DHT22;39553;52.954;5.932;2022-11-20T16:16:05;1.30;99.90
53653;DHT22;39553;52.954;5.932;2022-11-20T16:18:32;1.40;99.90
53653;DHT22;39553;52.954;5.932;2022-11-20T16:20:58;2.90;99.90
53653;DHT22;39553;52.954;5.932;2022-11-20T16:23:24;2.00;99.90
53653;DHT22;39553;52.954;5.932;2022-11-20T16:25:50;1.40;99.90
53653;DHT22;39553;52.954;5.932;2022-11-20T16:28:17;1.40;99.90
53653;DHT22;39553;52.954;5.932;2022-11-20T16:30:46;1.40;99.90
53653;DHT22;39553;52.954;5.932;2022-11-20T16:33:14;1.40;99.90
53653;DHT22;39553;52.954;5.932;2022-11-20T16:35:40;1.60;99.90
53653;DHT22;39553;52.954;5.932;2022-11-20T16:38:06;1.40;99.90
53653;DHT22;39553;52.954;5.932;2022-11-20T16:40:32;1.40;99.90
53653;DHT22;39553;52.954;5.932;2022-11-20T16:43:01;1.40;99.90
53653;DHT22;39553;52.954;5.932;2022-11-20T16:45:31;1.40;99.90
53653;DHT22;39553;52.954;5.932;2022-11-20T16:47:57;1.40;99.90
53653;DHT22;39553;52.954;5.932;2022-11-20T16:50:22;1.40;99.90
53653;DHT22;39553;52.954;5.932;2022-11-20T16:52:48;1.50;99.90
53653;DHT22;39553;52.954;5.932;2022-11-20T16:55:14;2.10;99.90
53653;DHT22;39553;52.954;5.932;2022-11-20T16:57:40;1.40;99.90
53653;DHT22;39553;52.954;5.932;2022-11-20T17:00:07;1.60;99.90
53653;DHT22;39553;52.954;5.932;2022-11-20T17:02:33;1.40;99.90
53653;DHT22;39553;52.954;5.932;2022-11-20T17:04:59;2.10;99.90
53653;DHT22;39553;52.954;5.932;2022-11-20T17:07:25;1.40;99.90
53653;DHT22;39553;52.954;5.932;2022-11-20T17:09:50;1.60;99.90
53653;DHT22;39553;52.954;5.932;2022-11-20T17:12:16;1.40;99.90
53653;DHT22;39553;52.954;5.932;2022-11-20T17:14:42;1.40;99.90
53653;DHT22;39553;52.954;5.932;2022-11-20T17:17:07;1.40;99.90
53653;DHT22;39553;52.954;5.932;2022-11-20T17:19:33;1.40;99.90
53653;DHT22;39553;52.954;5.932;2022-11-20T17:21:59;2.40;99.90